Terminal Aerodrome Forecast
Issued by NWS Boston, MA

Home | Current Version | Previous Version | Text Only | Print | Product List | Glossary On
Versions: 1 2 3 4 5 6 7 8 9 10 11 12 13 14 15 16 17 18 19 20 21 22 23
000
FTUS41 KBOX 041125
TAFBOS
TAF
KBOS 041125Z 0412/0518 07006KT P6SM SCT015 OVC025
     FM041500 08007KT P6SM VCSH SCT008 BKN015
     FM042000 06009KT P6SM -RA BKN008 OVC015
     FM050700 03011G24KT P6SM VCSH OVC008=

USA.gov is the U.S. government's official web portal to all federal, state and local government web resources and services.